Time;durP1;ratioP1;P1;durP2;ratioP2;P2;SDS_P1;SDS_P2;PMS_P1;PMS_P2;Temp;Humidity;BMP_temperature;BMP_pressure;BME280_temperature;BME280_humidity;BME280_pressure;Samples;Min_cycle;Max_cycle;Signal;HPM_P1;HPM_P2
2021/06/30 00:00:26;;;;;;;6.43;4.90;;;;;;;21.96;49.81;99483.89;127960;1098;22376;-78
2021/06/30 00:03:17;;;;;;;;;;;;;;;21.91;50.25;99489.27;128053;1098;22394;-78
2021/06/30 00:05:46;;;;;;;6.08;4.60;;;;;;;21.87;50.15;99475.55;128052;1098;21267;-79
2021/06/30 00:08:16;;;;;;;6.40;5.00;;;;;;;21.89;50.36;99470.69;127605;1098;22413;-80
2021/06/30 00:10:51;;;;;;;5.73;5.20;;;;;;;21.90;50.17;99460.77;127982;1098;22399;-79
2021/06/30 00:13:26;;;;;;;6.45;4.78;;;;;;;21.88;50.14;99469.08;127999;1098;24212;-80
2021/06/30 00:16:01;;;;;;;4.80;4.40;;;;;;;21.88;50.23;99474.46;128009;1098;24518;-80
2021/06/30 00:18:35;;;;;;;5.48;4.95;;;;;;;21.86;49.97;99471.24;128254;1098;22395;-81
2021/06/30 00:21:06;;;;;;;10.35;4.63;;;;;;;21.85;50.33;99473.09;127589;1098;24701;-80
2021/06/30 00:23:35;;;;;;;5.45;4.15;;;;;;;21.85;50.49;99473.09;127623;1097;22402;-80
2021/06/30 00:26:11;;;;;;;6.10;5.08;;;;;;;21.85;50.45;99467.72;127996;1098;22496;-80
2021/06/30 00:28:48;;;;;;;4.90;4.40;;;;;;;21.87;50.59;99463.98;128031;1098;23164;-80
2021/06/30 00:31:18;;;;;;;6.63;4.53;;;;;;;21.85;50.54;99453.48;127637;1098;22410;-78
2021/06/30 00:33:51;;;;;;;7.70;4.93;;;;;;;21.81;50.42;99463.95;128081;1098;22389;-79
2021/06/30 00:36:25;;;;;;;4.90;4.40;;;;;;;21.80;50.78;99466.91;128002;1098;22654;-79
2021/06/30 00:39:03;;;;;;;4.83;4.33;;;;;;;21.82;50.77;99464.75;127973;1098;22456;-79
2021/06/30 00:41:33;;;;;;;7.00;4.33;;;;;;;21.80;51.01;99477.67;128061;1098;22408;-79
2021/06/30 00:44:05;;;;;;;7.15;4.75;;;;;;;21.77;50.93;99483.56;127976;1098;22857;-79
2021/06/30 00:46:41;;;;;;;5.20;4.73;;;;;;;21.75;51.08;99517.95;127986;1098;24237;-79
2021/06/30 00:49:15;;;;;;;9.50;4.77;;;;;;;21.75;51.13;99540.27;127999;1098;22396;-79
2021/06/30 00:51:50;;;;;;;4.73;4.33;;;;;;;21.77;50.89;99553.47;128015;1098;22401;-79
2021/06/30 00:54:24;;;;;;;6.83;5.37;;;;;;;21.78;51.27;99565.83;128019;1098;24212;-80
2021/06/30 00:56:56;;;;;;;7.73;5.45;;;;;;;21.81;51.69;99579.55;127998;1098;22395;-79
2021/06/30 00:59:31;;;;;;;12.65;5.55;;;;;;;21.81;52.99;99593.00;127995;1097;22399;-79
2021/06/30 01:02:08;;;;;;;9.35;6.85;;;;;;;21.83;53.79;99620.45;127987;1098;22866;-78
2021/06/30 01:04:42;;;;;;;12.10;7.57;;;;;;;21.71;55.52;99609.06;128015;1097;24631;-79
2021/06/30 01:07:17;;;;;;;8.53;7.65;;;;;;;21.53;56.98;99631.80;128008;1098;23090;-79
2021/06/30 01:09:52;;;;;;;12.13;8.28;;;;;;;21.29;58.96;99617.88;128256;1098;22395;-80
2021/06/30 01:12:22;;;;;;;10.35;8.53;;;;;;;21.09;60.70;99621.20;128092;1098;22385;-80
2021/06/30 01:14:51;;;;;;;14.15;9.90;;;;;;;20.92;61.93;99623.16;128036;1098;22401;-79
2021/06/30 01:17:26;;;;;;;15.05;10.43;;;;;;;20.71;62.90;99610.60;128046;1098;24537;-80
2021/06/30 01:20:01;;;;;;;11.15;10.05;;;;;;;20.51;64.45;99609.31;128206;1098;22401;-81
2021/06/30 01:22:31;;;;;;;12.40;10.33;;;;;;;20.31;65.13;99614.41;127866;1098;22361;-82
2021/06/30 01:25:06;;;;;;;12.98;10.05;;;;;;;20.14;66.24;99617.14;128288;1098;23140;-82
2021/06/30 01:27:41;;;;;;;15.38;11.00;;;;;;;19.95;67.33;99625.47;128243;1098;22392;-82
2021/06/30 01:30:12;;;;;;;11.60;10.43;;;;;;;19.82;68.10;99622.33;127864;1098;22497;-81
2021/06/30 01:32:46;;;;;;;13.75;11.20;;;;;;;19.65;68.76;99611.63;127995;1098;22857;-81
2021/06/30 01:35:23;;;;;;;13.28;9.90;;;;;;;19.51;69.61;99603.90;128267;1098;24550;-82
2021/06/30 01:37:57;;;;;;;12.15;11.05;;;;;;;19.42;70.11;99604.55;128269;1098;22394;-82
2021/06/30 01:40:27;;;;;;;14.58;12.18;;;;;;;19.41;70.98;99590.34;127862;1098;22338;-82
2021/06/30 01:43:00;;;;;;;12.85;10.33;;;;;;;19.38;71.47;99582.80;127894;1098;24301;-82
2021/06/30 01:45:35;;;;;;;14.35;12.05;;;;;;;19.37;72.16;99586.55;128279;1098;22784;-82
2021/06/30 01:48:08;;;;;;;14.05;12.55;;;;;;;19.35;72.07;99571.77;127919;1098;22419;-81
2021/06/30 01:50:38;;;;;;;15.63;11.30;;;;;;;19.36;72.15;99562.67;127806;1098;23348;-80
2021/06/30 01:53:13;;;;;;;15.18;9.95;;;;;;;19.34;72.86;99554.89;128229;1098;24645;-80
2021/06/30 01:55:49;;;;;;;16.08;10.35;;;;;;;19.32;72.60;99548.15;128226;1098;22493;-81
2021/06/30 01:58:24;;;;;;;12.43;9.48;;;;;;;19.31;73.20;99547.34;128250;1098;24637;-81
2021/06/30 02:00:55;;;;;;;10.48;9.40;;;;;;;19.29;73.67;99546.77;127885;1098;22497;-81
2021/06/30 02:03:26;;;;;;;15.60;8.40;;;;;;;19.28;73.95;99535.25;127914;1098;23339;-81
2021/06/30 02:05:58;;;;;;;11.65;8.33;;;;;;;19.30;74.12;99535.02;127943;1098;22396;-83
2021/06/30 02:08:27;;;;;;;9.85;8.65;;;;;;;19.31;73.89;99530.47;127911;1098;22402;-81
2021/06/30 02:10:58;;;;;;;12.98;11.60;;;;;;;19.33;74.42;99513.11;127923;1098;24116;-82
2021/06/30 02:13:27;;;;;;;13.23;10.43;;;;;;;19.38;74.47;99501.65;127921;1099;22399;-82
2021/06/30 02:15:58;;;;;;;17.17;11.53;;;;;;;19.41;74.38;99495.80;127881;1099;22394;-83
2021/06/30 02:18:35;;;;;;;13.87;8.63;;;;;;;19.39;74.38;99485.35;128259;1098;22411;-83
2021/06/30 02:21:10;;;;;;;12.50;9.18;;;;;;;19.36;75.16;99477.81;127906;1098;24629;-82
2021/06/30 02:23:40;;;;;;;12.28;9.05;;;;;;;19.34;75.06;99474.55;127963;1098;22416;-82
2021/06/30 02:26:10;;;;;;;12.50;9.93;;;;;;;19.31;75.21;99468.88;127883;1098;22419;-83
2021/06/30 02:28:40;;;;;;;13.23;8.53;;;;;;;19.28;75.46;99446.89;128192;1098;22472;-84
2021/06/30 02:31:12;;;;;;;12.68;8.60;;;;;;;19.24;75.42;99415.51;127937;1098;22417;-85
2021/06/30 02:33:45;;;;;;;14.58;9.55;;;;;;;19.18;75.49;99371.78;128253;1098;22394;-82
2021/06/30 02:36:24;;;;;;;14.65;10.53;;;;;;;19.14;75.92;99367.18;127465;1098;22417;-83
2021/06/30 02:38:54;;;;;;;12.35;9.40;;;;;;;19.08;75.78;99374.33;127844;1098;22413;-83
2021/06/30 02:41:24;;;;;;;12.10;9.67;;;;;;;19.01;76.21;99384.41;127884;1098;22396;-82
2021/06/30 02:43:54;;;;;;;10.67;8.20;;;;;;;18.98;76.27;99400.95;127886;1098;24276;-84
2021/06/30 02:46:27;;;;;;;8.70;7.90;;;;;;;18.95;76.57;99410.27;127930;1098;22395;-83
2021/06/30 02:49:03;;;;;;;14.73;7.45;;;;;;;18.93;76.95;99411.60;128260;1097;22416;-85
2021/06/30 02:51:44;;;;;;;10.95;8.48;;;;;;;18.91;76.92;99411.02;128269;1098;22410;-83
2021/06/30 02:54:15;;;;;;;11.80;8.50;;;;;;;18.91;76.95;99421.73;128023;1098;24358;-84
2021/06/30 02:56:46;;;;;;;14.28;8.63;;;;;;;18.92;77.21;99424.14;128057;1098;22421;-84
2021/06/30 02:59:16;;;;;;;13.08;8.68;;;;;;;18.95;76.97;99412.95;127966;1098;22472;-84
2021/06/30 03:01:51;;;;;;;19.65;9.30;;;;;;;18.95;77.34;99409.47;128297;1098;22493;-84
2021/06/30 03:04:21;;;;;;;20.73;8.25;;;;;;;18.97;77.26;99410.05;127945;1098;22457;-84
2021/06/30 03:06:52;;;;;;;21.48;10.30;;;;;;;19.01;77.25;99411.17;127906;1098;22737;-83
2021/06/30 03:09:22;;;;;;;26.33;9.58;;;;;;;19.02;77.15;99421.61;127910;1098;23124;-84
2021/06/30 03:11:52;;;;;;;17.08;9.40;;;;;;;19.02;77.57;99424.30;127906;1098;22880;-84
2021/06/30 03:14:24;;;;;;;20.90;8.55;;;;;;;19.05;77.40;99415.77;127980;1098;23279;-83
2021/06/30 03:16:59;;;;;;;17.25;8.40;;;;;;;19.08;77.23;99416.35;128273;1098;22399;-84
2021/06/30 03:19:29;;;;;;;20.93;7.75;;;;;;;19.12;77.77;99406.77;127844;1098;24609;-82
2021/06/30 03:22:02;;;;;;;9.48;7.28;;;;;;;19.14;77.77;99408.14;127886;1098;22411;-82
2021/06/30 03:24:32;;;;;;;9.75;6.93;;;;;;;19.15;77.45;99422.33;127948;1098;24547;-82
2021/06/30 03:27:04;;;;;;;12.38;7.70;;;;;;;19.12;77.63;99428.18;127886;1098;23164;-82
2021/06/30 03:29:34;;;;;;;8.98;7.83;;;;;;;19.11;77.84;99443.44;127950;1098;22411;-82
2021/06/30 03:32:05;;;;;;;10.75;7.38;;;;;;;19.10;77.46;99449.85;127890;1098;22410;-82
2021/06/30 03:34:34;;;;;;;10.58;8.55;;;;;;;19.13;77.99;99451.23;127881;1098;22402;-83
2021/06/30 03:37:04;;;;;;;10.23;8.55;;;;;;;19.17;78.31;99458.52;127899;1098;22408;-83
2021/06/30 03:39:37;;;;;;;8.50;7.60;;;;;;;19.19;77.92;99474.33;128228;1098;22404;-83
2021/06/30 03:42:07;;;;;;;9.80;8.30;;;;;;;19.19;78.05;99474.33;127876;1098;23170;-83
2021/06/30 03:44:42;;;;;;;13.38;8.75;;;;;;;19.18;78.49;99486.91;128189;1098;22395;-82
2021/06/30 03:47:12;;;;;;;8.70;7.80;;;;;;;19.16;78.10;99491.71;127832;1098;22413;-82
2021/06/30 03:50:07;;;;;;;9.68;8.25;;;;;;;19.14;77.50;99490.33;127903;1098;22399;-84
2021/06/30 03:53:03;;;;;;;12.50;7.53;;;;;;;19.04;78.03;99502.49;128003;1098;22395;-86
2021/06/30 03:55:36;;;;;;;7.45;6.75;;;;;;;18.98;78.32;99511.49;127900;1098;22438;-85
2021/06/30 03:58:25;;;;;;;7.80;7.08;;;;;;;18.97;78.25;99511.75;127991;1098;22411;-84
2021/06/30 04:00:58;;;;;;;7.78;6.98;;;;;;;18.94;78.59;99510.36;127998;1098;22419;-84
2021/06/30 04:03:28;;;;;;;10.33;7.73;;;;;;;18.94;78.53;99521.06;127974;1098;22468;-84
2021/06/30 04:05:59;;;;;;;8.60;7.80;;;;;;;18.93;78.33;99521.33;127867;1098;22405;-84
2021/06/30 04:08:29;;;;;;;9.63;7.60;;;;;;;18.94;78.27;99522.94;127961;1098;24292;-83
2021/06/30 04:10:59;;;;;;;11.83;8.28;;;;;;;18.98;78.35;99532.09;127890;1098;23423;-84
2021/06/30 04:13:31;;;;;;;9.75;7.40;;;;;;;18.99;78.38;99531.88;127885;1098;24301;-83
2021/06/30 04:16:04;;;;;;;7.65;6.90;;;;;;;18.93;78.15;99537.38;127907;1098;24543;-84
2021/06/30 04:18:34;;;;;;;9.33;8.43;;;;;;;18.85;78.30;99537.77;127954;1098;24292;-83
2021/06/30 04:21:08;;;;;;;9.00;7.30;;;;;;;18.85;78.61;99538.56;128220;1098;22449;-83
2021/06/30 04:23:38;;;;;;;10.43;7.48;;;;;;;18.88;78.47;99529.25;127960;1098;22395;-83
2021/06/30 04:26:07;;;;;;;10.40;7.13;;;;;;;18.93;78.64;99543.54;127954;1098;22404;-83
2021/06/30 04:28:42;;;;;;;7.65;6.90;;;;;;;18.95;78.75;99541.41;128303;1098;22463;-83
2021/06/30 04:31:12;;;;;;;11.33;9.98;;;;;;;18.97;78.39;99533.16;127929;1098;22920;-82
2021/06/30 04:33:42;;;;;;;19.65;11.25;;;;;;;18.99;78.11;99528.36;127951;1098;22397;-83
2021/06/30 04:36:12;;;;;;;10.80;8.20;;;;;;;19.02;78.19;99526.00;127865;1098;22396;-82
2021/06/30 04:38:42;;;;;;;11.15;8.63;;;;;;;19.01;77.94;99528.94;127975;1098;24858;-83
2021/06/30 04:41:14;;;;;;;10.53;8.80;;;;;;;19.01;77.79;99528.94;127978;1098;22462;-83
2021/06/30 04:43:45;;;;;;;11.10;8.33;;;;;;;19.04;77.96;99531.13;127950;1098;22413;-83
2021/06/30 04:46:20;;;;;;;7.90;7.10;;;;;;;19.11;78.31;99518.39;128335;1098;22391;-83
2021/06/30 04:48:51;;;;;;;7.57;6.50;;;;;;;19.20;78.30;99524.16;127953;1098;22599;-83
2021/06/30 04:51:21;;;;;;;9.23;5.85;;;;;;;19.32;78.25;99526.73;127983;1098;22401;-84
2021/06/30 04:53:56;;;;;;;7.95;6.25;;;;;;;19.44;78.11;99536.30;128238;1098;22419;-84
2021/06/30 04:56:27;;;;;;;5.10;4.27;;;;;;;19.60;77.74;99541.89;127864;1098;22400;-83
2021/06/30 04:58:57;;;;;;;10.00;4.20;;;;;;;19.75;77.32;99532.19;128234;1098;22496;-82
2021/06/30 05:01:26;;;;;;;10.05;3.80;;;;;;;19.92;76.64;99524.09;127885;1098;22432;-81
2021/06/30 05:03:57;;;;;;;6.33;3.45;;;;;;;20.12;75.75;99515.48;127935;1098;22967;-82
2021/06/30 05:06:34;;;;;;;4.95;2.38;;;;;;;20.37;75.28;99519.53;128230;1098;22485;-83
2021/06/30 05:09:04;;;;;;;3.25;1.90;;;;;;;20.57;74.55;99535.06;127918;1098;22416;-83
2021/06/30 05:11:35;;;;;;;5.40;2.33;;;;;;;20.76;73.50;99532.80;127951;1098;22456;-82
2021/06/30 05:14:10;;;;;;;4.13;1.78;;;;;;;20.85;72.44;99533.97;128148;1098;24371;-84
2021/06/30 05:16:41;;;;;;;6.73;1.85;;;;;;;21.00;71.96;99533.30;127887;1098;24561;-85
2021/06/30 05:19:11;;;;;;;3.33;2.10;;;;;;;21.22;71.53;99527.81;127889;1098;22507;-84
2021/06/30 05:21:41;;;;;;;6.75;1.70;;;;;;;21.45;70.33;99523.97;127873;1098;23224;-83
2021/06/30 05:24:11;;;;;;;4.83;1.40;;;;;;;21.66;69.26;99530.27;127848;1098;22411;-84
2021/06/30 05:26:47;;;;;;;6.00;2.08;;;;;;;21.84;68.44;99532.52;128215;1098;22392;-82
2021/06/30 05:29:23;;;;;;;6.40;1.75;;;;;;;22.09;67.27;99538.02;128237;1098;22395;-80
2021/06/30 05:32:09;;;;;;;2.73;1.25;;;;;;;22.22;65.93;99534.03;128037;1098;23357;-81
2021/06/30 05:34:44;;;;;;;4.05;1.85;;;;;;;22.31;65.50;99528.96;128211;1098;22436;-81
2021/06/30 05:37:18;;;;;;;3.18;1.63;;;;;;;22.48;64.38;99532.23;128206;1098;22397;-84
2021/06/30 05:39:47;;;;;;;2.40;1.10;;;;;;;22.53;63.46;99534.14;127866;1098;24521;-82
2021/06/30 05:42:23;;;;;;;2.10;0.90;;;;;;;22.59;62.97;99527.66;128280;1098;22420;-81
2021/06/30 05:44:52;;;;;;;2.00;0.80;;;;;;;22.55;62.11;99530.08;128218;1098;22401;-81
2021/06/30 05:47:23;;;;;;;6.13;1.15;;;;;;;22.53;62.26;99523.38;128308;1098;22414;-81
2021/06/30 05:49:59;;;;;;;3.33;0.88;;;;;;;22.62;61.83;99537.09;128282;1098;24540;-82
2021/06/30 05:52:28;;;;;;;1.83;0.80;;;;;;;22.79;61.66;99543.87;128226;1098;22504;-81
2021/06/30 05:54:58;;;;;;;5.08;1.10;;;;;;;23.05;61.10;99551.16;127912;1098;22406;-83
2021/06/30 05:57:34;;;;;;;2.35;1.00;;;;;;;23.39;60.36;99551.41;128079;1098;22405;-82
2021/06/30 06:00:19;;;;;;;2.70;0.78;;;;;;;23.87;59.17;99562.67;127972;1098;22507;-83
2021/06/30 06:02:50;;;;;;;2.28;0.88;;;;;;;24.30;57.58;99565.73;127778;1098;22406;-84
2021/06/30 06:05:20;;;;;;;2.65;0.80;;;;;;;24.60;56.93;99562.09;128259;1098;22406;-83
2021/06/30 06:07:50;;;;;;;8.08;1.93;;;;;;;24.93;55.62;99573.22;128249;1098;22497;-82
2021/06/30 06:10:25;;;;;;;2.75;0.70;;;;;;;25.13;54.21;99561.48;128288;1098;24202;-80
2021/06/30 06:12:59;;;;;;;3.80;1.18;;;;;;;25.12;53.59;99571.45;128262;1098;24640;-78
2021/06/30 06:15:29;;;;;;;2.33;0.60;;;;;;;24.82;53.11;99570.56;127999;1098;22408;-79
2021/06/30 06:17:59;;;;;;;3.08;0.60;;;;;;;24.40;53.54;99571.09;128250;1098;22401;-79
2021/06/30 06:20:35;;;;;;;1.40;0.60;;;;;;;24.13;55.04;99574.98;128272;1098;22395;-79
2021/06/30 06:23:11;;;;;;;2.40;0.75;;;;;;;24.33;55.55;99587.58;128296;1098;22394;-83
2021/06/30 06:25:41;;;;;;;3.20;0.88;;;;;;;24.34;54.33;99577.59;128070;1098;22417;-84
2021/06/30 06:28:11;;;;;;;4.40;1.00;;;;;;;24.03;54.37;99576.92;127621;1098;22403;-84
2021/06/30 06:30:48;;;;;;;4.13;1.10;;;;;;;23.83;54.70;99583.99;128064;1098;24359;-81
2021/06/30 06:33:24;;;;;;;4.00;0.88;;;;;;;23.78;55.62;99585.88;127966;1098;22421;-80
2021/06/30 06:35:59;;;;;;;2.60;0.93;;;;;;;23.76;55.18;99574.55;128001;1098;22414;-82
2021/06/30 06:38:32;;;;;;;3.33;0.83;;;;;;;23.66;55.59;99578.07;127888;1098;22398;-81
2021/06/30 06:41:02;;;;;;;4.05;1.33;;;;;;;23.68;55.81;99565.94;127906;1098;22413;-81
2021/06/30 06:43:42;;;;;;;3.68;0.90;;;;;;;23.95;55.77;99584.47;128241;1098;22403;-83
2021/06/30 06:46:12;;;;;;;2.83;1.28;;;;;;;24.10;54.58;99588.22;127896;1098;22397;-84
2021/06/30 06:48:42;;;;;;;1.80;0.93;;;;;;;24.12;54.29;99589.54;127950;1098;22412;-83
2021/06/30 06:51:18;;;;;;;5.00;1.08;;;;;;;23.95;54.46;99587.17;128240;1098;22400;-85
2021/06/30 06:53:48;;;;;;;1.80;1.00;;;;;;;23.74;54.47;99574.03;127850;1098;22430;-82
2021/06/30 06:56:20;;;;;;;3.73;0.95;;;;;;;23.47;54.97;99586.72;127734;1098;22500;-85
2021/06/30 06:58:56;;;;;;;4.40;1.30;;;;;;;23.34;55.43;99572.98;127978;1097;22364;-83
2021/06/30 07:01:26;;;;;;;1.57;0.80;;;;;;;23.18;55.58;99580.27;127795;1098;22752;-80
2021/06/30 07:04:01;;;;;;;4.50;1.38;;;;;;;23.05;56.42;99573.52;128256;1098;22738;-82
2021/06/30 07:06:31;;;;;;;2.40;1.10;;;;;;;23.04;56.89;99565.72;128225;1098;23131;-82
2021/06/30 07:09:01;;;;;;;1.75;1.00;;;;;;;23.06;57.24;99561.69;127900;1098;22404;-83
2021/06/30 07:11:31;;;;;;;3.20;1.30;;;;;;;23.13;56.87;99572.20;127820;1098;24563;-81
2021/06/30 07:14:04;;;;;;;1.88;0.98;;;;;;;23.13;56.45;99564.92;128274;1098;24292;-82
2021/06/30 07:16:34;;;;;;;2.58;0.78;;;;;;;23.02;56.69;99568.67;127670;1098;22408;-82
2021/06/30 07:19:04;;;;;;;4.08;1.28;;;;;;;22.95;56.96;99568.94;127886;1098;24546;-82
2021/06/30 07:21:34;;;;;;;2.68;1.50;;;;;;;22.96;57.29;99570.57;128167;1098;24361;-78
2021/06/30 07:24:10;;;;;;;2.90;1.00;;;;;;;22.93;57.28;99570.30;128048;1098;22391;-82
2021/06/30 07:26:40;;;;;;;1.98;0.90;;;;;;;22.90;57.36;99568.91;127655;1098;22395;-83
2021/06/30 07:29:10;;;;;;;3.85;1.30;;;;;;;22.92;57.71;99574.83;128267;1098;22682;-82
2021/06/30 07:31:46;;;;;;;2.78;1.08;;;;;;;22.91;57.67;99578.60;128252;1098;22414;-83
2021/06/30 07:34:21;;;;;;;4.33;1.18;;;;;;;22.87;57.69;99576.72;128238;1098;24537;-82
2021/06/30 07:36:50;;;;;;;3.70;1.18;;;;;;;22.84;57.87;99577.25;128093;1098;22366;-84
2021/06/30 07:39:26;;;;;;;1.83;0.80;;;;;;;22.84;57.76;99593.41;128252;1098;22403;-83
2021/06/30 07:42:01;;;;;;;2.38;0.90;;;;;;;22.74;57.54;99594.20;128001;1098;22572;-83
2021/06/30 07:44:31;;;;;;;3.80;1.20;;;;;;;22.62;57.88;99580.16;128232;1098;25014;-82
2021/06/30 07:47:02;;;;;;;2.90;0.98;;;;;;;22.50;58.53;99589.30;128259;1098;22407;-84
2021/06/30 07:49:32;;;;;;;3.57;1.20;;;;;;;22.47;58.82;99589.02;128207;1098;22500;-83
2021/06/30 07:52:02;;;;;;;1.80;0.90;;;;;;;22.41;58.84;99588.19;127826;1101;24533;-84
2021/06/30 07:54:35;;;;;;;3.68;1.70;;;;;;;22.33;59.29;99591.41;127863;1101;22420;-82
2021/06/30 07:57:05;;;;;;;1.65;1.25;;;;;;;22.27;59.42;99598.63;127920;1101;22415;-84
2021/06/30 07:59:35;;;;;;;5.30;1.20;;;;;;;22.29;59.48;99590.28;127834;1101;22424;-82
2021/06/30 08:02:06;;;;;;;1.88;1.20;;;;;;;22.31;59.95;99580.08;127895;1101;22402;-82
2021/06/30 08:04:36;;;;;;;2.23;1.10;;;;;;;22.45;60.11;99580.39;127900;1101;22396;-79
2021/06/30 08:07:13;;;;;;;4.55;1.80;;;;;;;22.77;60.00;99588.28;127854;1101;22493;-80
2021/06/30 08:09:44;;;;;;;8.88;2.93;;;;;;;23.03;59.53;99591.05;127064;1105;22430;-80
2021/06/30 08:12:17;;;;;;;5.90;1.38;;;;;;;23.15;58.98;99599.66;127298;1105;22417;-80
2021/06/30 08:14:46;;;;;;;57.33;6.15;;;;;;;23.22;58.59;99600.20;127088;1105;22416;-79
2021/06/30 08:17:16;;;;;;;2.38;1.38;;;;;;;23.29;58.77;99600.73;127563;1101;23181;-75
2021/06/30 08:19:46;;;;;;;7.88;2.45;;;;;;;23.40;58.72;99596.16;127965;1100;22600;-77
2021/06/30 08:22:16;;;;;;;3.18;1.35;;;;;;;23.54;58.41;99607.20;127596;1101;23046;-79
2021/06/30 08:24:46;;;;;;;3.38;1.90;;;;;;;23.64;58.16;99612.58;127525;1104;22429;-78
2021/06/30 08:27:18;;;;;;;2.15;1.13;;;;;;;23.72;58.27;99612.05;127203;1101;22427;-79
2021/06/30 08:29:49;;;;;;;3.80;2.23;;;;;;;23.85;57.83;99611.48;127151;1105;24559;-78
2021/06/30 08:32:25;;;;;;;7.17;3.37;;;;;;;23.88;58.13;99616.33;127650;1105;22415;-79
2021/06/30 08:34:55;;;;;;;5.50;2.58;;;;;;;24.04;57.75;99613.59;127366;1105;23421;-79
2021/06/30 08:37:26;;;;;;;5.80;2.38;;;;;;;24.16;57.25;99619.50;127630;1105;22423;-79
2021/06/30 08:39:55;;;;;;;;;;;;;;;24.17;56.75;99615.72;127391;1105;25079;-79
2021/06/30 08:42:25;;;;;;;4.98;2.48;;;;;;;24.15;56.85;99623.27;127566;1101;21283;-78
2021/06/30 08:44:54;;;;;;;2.85;2.08;;;;;;;24.14;56.32;99621.66;127588;1101;24334;-77
2021/06/30 08:47:28;;;;;;;4.80;2.73;;;;;;;24.08;56.48;99631.66;127652;1098;23171;-78
2021/06/30 08:50:00;;;;;;;4.08;1.65;;;;;;;24.02;56.32;99630.05;128012;1098;22385;-78
2021/06/30 08:52:31;;;;;;;2.70;1.15;;;;;;;24.04;56.23;99632.48;127975;1098;22395;-78
2021/06/30 08:55:07;;;;;;;3.50;1.10;;;;;;;24.07;56.15;99629.24;128012;1098;22695;-78
2021/06/30 08:57:38;;;;;;;2.80;1.10;;;;;;;24.22;55.93;99629.17;128207;1098;22741;-78
2021/06/30 09:00:13;;;;;;;3.53;1.68;;;;;;;24.57;55.77;99630.16;127985;1098;22385;-78
2021/06/30 09:02:46;;;;;;;3.25;1.60;;;;;;;24.93;55.28;99619.15;127945;1098;22729;-78
2021/06/30 09:07:52;;;;;;;7.28;1.98;;;;;;;25.87;53.49;99617.04;127944;1098;24291;-77
2021/06/30 09:10:36;;;;;;;1.53;1.03;;;;;;;26.24;51.23;99627.16;127997;1098;23131;-78
2021/06/30 09:13:18;;;;;;;4.48;1.53;;;;;;;26.57;50.93;99615.70;127966;1098;25074;-77
2021/06/30 09:16:01;;;;;;;6.23;1.88;;;;;;;27.02;50.25;99625.05;127980;1098;22412;-79
2021/06/30 09:18:39;;;;;;;;;;;;;;;27.16;48.52;99620.54;128033;1098;22391;-78
2021/06/30 09:21:24;;;;;;;1.80;1.20;;;;;;;27.16;49.17;99617.83;127997;1098;21301;-80
2021/06/30 09:24:19;;;;;;;1.78;0.98;;;;;;;26.99;48.50;99637.31;127963;1098;25051;-79
2021/06/30 09:26:59;;;;;;;5.83;1.00;;;;;;;26.75;49.08;99631.94;127951;1098;24539;-79
2021/06/30 09:29:31;;;;;;;3.00;1.18;;;;;;;26.48;48.83;99632.58;127973;1098;22389;-81
2021/06/30 09:32:12;;;;;;;6.20;1.35;;;;;;;26.25;49.71;99633.38;127923;1098;22408;-80
2021/06/30 09:34:42;;;;;;;2.28;1.10;;;;;;;26.07;49.69;99623.33;128250;1098;22396;-80
2021/06/30 09:37:12;;;;;;;14.40;2.58;;;;;;;26.01;50.64;99636.90;128012;1098;22392;-79
2021/06/30 09:39:57;;;;;;;5.23;1.48;;;;;;;26.07;50.49;99631.44;128208;1098;22457;-80
2021/06/30 09:42:32;;;;;;;18.43;2.88;;;;;;;25.93;50.17;99639.45;127978;1098;22368;-79
2021/06/30 09:45:20;;;;;;;4.95;1.10;;;;;;;25.92;50.72;99633.20;128235;1098;22413;-79
2021/06/30 09:47:53;;;;;;;2.95;0.90;;;;;;;26.14;50.13;99635.41;127994;1098;22551;-79
2021/06/30 09:50:40;;;;;;;4.50;1.00;;;;;;;26.41;49.61;99629.39;128052;1098;23260;-79
2021/06/30 09:53:10;;;;;;;2.65;0.93;;;;;;;26.62;48.84;99627.25;128423;1096;22505;-80
2021/06/30 09:55:43;;;;;;;1.60;0.95;;;;;;;26.65;47.84;99631.28;128264;1098;24135;-79
2021/06/30 09:58:31;;;;;;;0.95;0.50;;;;;;;26.80;47.54;99624.86;128002;1098;24546;-79
2021/06/30 10:01:19;;;;;;;1.63;0.60;;;;;;;27.07;47.26;99619.56;128242;1098;24299;-79
2021/06/30 10:03:49;;;;;;;4.68;1.20;;;;;;;27.21;46.01;99619.64;127998;1098;22410;-79
2021/06/30 10:06:31;;;;;;;3.53;1.30;;;;;;;27.32;45.61;99626.50;128036;1098;24233;-77
2021/06/30 10:09:09;;;;;;;1.15;0.75;;;;;;;27.19;45.52;99627.25;127661;1101;22428;-81
2021/06/30 10:11:39;;;;;;;2.20;0.80;;;;;;;27.00;45.77;99613.72;127725;1101;22413;-79
2021/06/30 10:14:10;;;;;;;2.45;0.75;;;;;;;27.09;46.10;99619.25;127797;1101;22462;-80
2021/06/30 10:16:39;;;;;;;2.00;0.60;;;;;;;27.12;46.12;99624.89;128004;1101;22369;-81
2021/06/30 10:19:10;;;;;;;1.65;0.73;;;;;;;27.29;45.92;99621.70;127642;1101;23319;-79
2021/06/30 10:21:41;;;;;;;3.08;0.93;;;;;;;27.53;45.59;99624.27;128018;1101;22843;-82
2021/06/30 10:24:13;;;;;;;2.00;0.95;;;;;;;27.60;44.54;99621.16;128016;1101;22896;-78
2021/06/30 10:26:43;;;;;;;2.50;0.80;;;;;;;27.58;44.83;99613.31;128308;1101;22371;-80
2021/06/30 10:29:15;;;;;;;3.30;0.90;;;;;;;27.39;44.13;99626.12;127942;1101;22366;-79
2021/06/30 10:31:48;;;;;;;4.78;1.53;;;;;;;27.10;44.46;99618.98;128068;1101;22359;-81
2021/06/30 10:34:19;;;;;;;1.75;1.00;;;;;;;26.90;44.76;99611.16;127822;1098;22388;-80
2021/06/30 10:36:55;;;;;;;3.43;1.00;;;;;;;26.90;45.06;99620.09;128013;1098;23207;-81
2021/06/30 10:39:38;;;;;;;3.50;0.78;;;;;;;26.96;45.34;99620.83;128084;1098;22382;-81
2021/06/30 10:42:34;;;;;;;1.45;0.80;;;;;;;27.16;45.41;99623.25;127984;1098;24537;-82
2021/06/30 10:45:20;;;;;;;2.50;0.75;;;;;;;27.24;44.59;99626.39;128305;1098;23189;-79
2021/06/30 10:48:16;;;;;;;4.90;1.10;;;;;;;27.26;45.04;99624.16;128048;1098;25005;-82
2021/06/30 10:50:58;;;;;;;5.18;1.10;;;;;;;27.36;45.11;99630.25;127994;1098;23202;-78
2021/06/30 10:53:29;;;;;;;4.87;1.07;;;;;;;27.34;44.70;99623.51;127981;1098;22366;-79
2021/06/30 10:56:02;;;;;;;6.30;1.43;;;;;;;27.36;44.72;99624.03;128043;1098;22638;-79
2021/06/30 10:58:35;;;;;;;5.35;1.23;;;;;;;27.46;44.67;99618.43;128156;1098;23177;-79
2021/06/30 11:01:09;;;;;;;6.50;2.13;;;;;;;27.54;44.43;99620.45;128042;1098;22387;-80
2021/06/30 11:03:50;;;;;;;2.07;1.10;;;;;;;27.60;43.95;99615.74;128030;1098;23234;-80
2021/06/30 11:06:24;;;;;;;6.18;1.83;;;;;;;27.64;43.57;99620.26;128045;1098;22382;-79
2021/06/30 11:09:26;;;;;;;3.60;1.10;;;;;;;27.61;42.86;99630.91;128236;1098;23293;-80
2021/06/30 11:11:59;;;;;;;11.43;1.73;;;;;;;27.57;43.06;99627.98;128232;1098;22401;-80
2021/06/30 11:14:41;;;;;;;3.17;1.00;;;;;;;27.52;43.21;99619.92;128062;1098;22402;-80
2021/06/30 11:17:11;;;;;;;3.10;0.98;;;;;;;27.50;43.35;99621.34;128065;1098;22394;-79
2021/06/30 11:19:42;;;;;;;2.78;0.80;;;;;;;27.55;42.91;99618.53;128008;1098;24543;-79
2021/06/30 11:22:24;;;;;;;2.50;0.95;;;;;;;27.56;42.95;99620.16;127915;1098;22401;-79
2021/06/30 11:24:55;;;;;;;3.08;2.03;;;;;;;27.53;42.86;99618.84;128021;1098;22414;-79
2021/06/30 11:27:34;;;;;;;2.55;2.00;;;;;;;27.40;42.68;99616.90;127882;1101;22395;-80
2021/06/30 11:30:08;;;;;;;5.73;1.40;;;;;;;27.29;43.05;99620.86;127572;1101;22443;-77
2021/06/30 11:32:38;;;;;;;4.65;2.80;;;;;;;27.21;43.30;99617.73;127592;1101;22392;-79
2021/06/30 11:35:32;;;;;;;3.63;2.40;;;;;;;27.23;44.14;99617.45;127589;1101;22526;-78
2021/06/30 11:38:15;;;;;;;2.75;1.70;;;;;;;27.27;43.73;99623.89;127723;1105;22849;-82
2021/06/30 11:41:06;;;;;;;3.63;1.13;;;;;;;27.24;44.01;99620.97;127790;1103;22391;-79
2021/06/30 11:43:45;;;;;;;2.75;1.53;;;;;;;27.08;43.99;99623.88;127818;1104;25813;-78
2021/06/30 11:46:15;;;;;;;4.08;1.90;;;;;;;26.95;44.10;99627.33;127688;1101;24358;-79
2021/06/30 11:48:51;;;;;;;4.73;2.05;;;;;;;26.83;44.49;99619.66;127561;1101;22394;-79
2021/06/30 11:51:22;;;;;;;2.93;1.45;;;;;;;26.74;44.61;99619.50;127486;1101;22394;-78
2021/06/30 11:53:51;;;;;;;2.98;1.83;;;;;;;26.64;44.78;99621.55;127592;1101;22609;-80
2021/06/30 11:56:36;;;;;;;4.25;1.23;;;;;;;26.60;45.26;99615.92;127674;1100;24186;-78